Time;durP1;ratioP1;P1;durP2;ratioP2;P2;SDS_P1;SDS_P2;PMS_P1;PMS_P2;Temp;Humidity;BMP_temperature;BMP_pressure;BME280_temperature;BME280_humidity;BME280_pressure;Samples;Min_cycle;Max_cycle;Signal;HPM_P1;HPM_P2
2022/04/13 00:02:11;;;;;;;3.35;1.70;;;;;;;10.87;73.99;100345.22;5051945;28;20044;-67
2022/04/13 00:05:16;;;;;;;3.75;1.80;;;;;;;10.88;73.76;100342.53;5055635;28;20087;-67
2022/04/13 00:08:19;;;;;;;;;;;;;;;10.76;74.16;100340.59;5056200;28;20101;-67
2022/04/13 00:11:22;;;;;;;7.32;1.67;;;;;;;10.86;73.71;100344.38;5055799;28;20291;-67
2022/04/13 00:14:26;;;;;;;3.90;1.88;;;;;;;10.69;74.18;100350.56;5055695;28;20063;-67
2022/04/13 00:17:30;;;;;;;7.68;2.55;;;;;;;10.67;74.64;100348.97;5055604;28;20499;-67
2022/04/13 00:20:35;;;;;;;4.95;1.63;;;;;;;10.70;74.07;100349.63;5055871;28;20048;-67
2022/04/13 00:23:38;;;;;;;5.03;1.70;;;;;;;10.71;73.06;100348.69;5055462;28;20545;-67
2022/04/13 00:26:42;;;;;;;4.53;1.77;;;;;;;10.80;73.02;100362.19;5043405;28;20087;-67
2022/04/13 00:29:45;;;;;;;5.95;2.13;;;;;;;10.81;72.53;100356.03;5055423;28;20172;-67
2022/04/13 00:32:48;;;;;;;;;;;;;;;10.54;74.21;100350.56;5055802;28;20086;-67
2022/04/13 00:35:54;;;;;;;10.25;1.80;;;;;;;10.55;74.90;100355.69;5055426;28;19935;-68
2022/04/13 00:38:57;;;;;;;5.47;1.55;;;;;;;10.49;75.12;100361.25;5055451;28;20055;-67
2022/04/13 00:42:06;;;;;;;9.10;2.15;;;;;;;10.44;75.42;100358.06;5055248;28;20113;-67
2022/04/13 00:45:09;;;;;;;8.57;2.58;;;;;;;10.53;74.44;100367.16;5055134;28;20099;-67
2022/04/13 00:48:29;;;;;;;5.55;1.80;;;;;;;10.43;75.24;100362.47;5055232;28;20507;-67
2022/04/13 00:51:32;;;;;;;3.67;1.83;;;;;;;10.46;74.97;100366.66;5054924;28;20458;-67
2022/04/13 00:54:37;;;;;;;;;;;;;;;10.59;74.46;100367.69;5055755;28;20047;-67
2022/04/13 00:57:41;;;;;;;3.33;1.77;;;;;;;10.40;75.10;100362.63;5054933;28;19935;-67
2022/04/13 01:00:48;;;;;;;7.57;1.77;;;;;;;10.19;76.31;100375.03;5054705;28;20091;-67
2022/04/13 01:03:52;;;;;;;4.05;1.35;;;;;;;10.41;75.26;100364.31;5054112;28;20048;-67
2022/04/13 01:06:56;;;;;;;4.22;1.65;;;;;;;10.33;75.00;100371.69;5041325;28;20044;-67
2022/04/13 01:10:05;;;;;;;4.32;2.00;;;;;;;10.16;75.63;100369.13;5053292;28;20059;-67
2022/04/13 01:13:10;;;;;;;5.80;2.03;;;;;;;10.21;75.54;100375.81;5053051;28;20094;-67
2022/04/13 01:16:13;;;;;;;6.18;2.30;;;;;;;10.21;75.16;100383.66;5053305;28;20040;-67
2022/04/13 01:19:17;;;;;;;7.13;2.03;;;;;;;10.14;75.60;100387.47;5053377;28;20055;-67
2022/04/13 01:22:25;;;;;;;7.72;2.15;;;;;;;10.01;76.01;100389.88;5054271;28;20408;-67
2022/04/13 01:25:29;;;;;;;6.15;2.00;;;;;;;10.09;75.88;100393.91;5054214;28;20366;-67
2022/04/13 01:28:32;;;;;;;5.72;1.83;;;;;;;10.05;76.43;100392.34;5054246;28;20075;-67
2022/04/13 01:31:36;;;;;;;4.80;2.17;;;;;;;9.98;76.61;100392.66;5054055;28;20075;-67
2022/04/13 01:34:49;;;;;;;;;;;;;;;10.23;75.32;100397.44;5054621;28;20051;-67
2022/04/13 01:37:53;;;;;;;6.63;2.20;;;;;;;10.04;75.96;100401.13;5054120;28;19919;-67
2022/04/13 01:40:57;;;;;;;4.38;2.00;;;;;;;10.25;75.35;100405.22;5054194;28;20059;-67
2022/04/13 01:44:00;;;;;;;3.85;1.85;;;;;;;10.26;75.22;100406.94;5054056;28;20052;-67
2022/04/13 01:47:04;;;;;;;;;;;;;;;10.13;75.79;100408.47;5053535;28;20400;-67
2022/04/13 01:50:09;;;;;;;7.25;1.98;;;;;;;9.95;76.46;100398.03;5053697;28;20331;-67
2022/04/13 01:53:13;;;;;;;3.85;1.67;;;;;;;9.95;76.92;100407.66;5053711;28;20044;-67
2022/04/13 01:56:16;;;;;;;;;;;;;;;10.12;75.90;100414.63;5054144;28;20550;-67
2022/04/13 01:59:19;;;;;;;;;;;;;;;10.36;74.87;100415.13;5053942;28;19973;-67
2022/04/13 02:02:23;;;;;;;6.30;2.05;;;;;;;10.09;75.96;100417.41;5053427;28;19935;-67
2022/04/13 02:05:26;;;;;;;5.10;1.85;;;;;;;9.94;76.70;100401.59;5053339;28;20106;-67
2022/04/13 02:08:30;;;;;;;5.82;1.80;;;;;;;9.89;77.20;100414.06;5053501;28;20079;-67
2022/04/13 02:11:33;;;;;;;7.50;1.67;;;;;;;10.09;76.59;100420.03;5053348;28;20408;-67
2022/04/13 02:14:36;;;;;;;;;;;;;;;10.08;76.43;100423.53;5053880;28;20494;-67
2022/04/13 02:17:40;;;;;;;10.75;2.50;;;;;;;10.23;75.71;100423.59;5053047;28;19997;-67
2022/04/13 02:20:43;;;;;;;8.55;1.85;;;;;;;10.10;76.06;100421.69;5053166;28;20059;-67
2022/04/13 02:23:47;;;;;;;3.50;1.73;;;;;;;10.16;75.86;100421.38;5053183;28;20091;-67
2022/04/13 02:26:50;;;;;;;10.10;1.80;;;;;;;10.22;75.26;100421.06;5052342;28;20065;-67
2022/04/13 02:29:54;;;;;;;9.80;2.35;;;;;;;10.33;74.87;100429.19;5053235;28;20047;-67
2022/04/13 02:32:58;;;;;;;4.25;2.10;;;;;;;10.02;75.81;100432.56;5052859;28;20159;-67
2022/04/13 02:36:01;;;;;;;5.45;2.00;;;;;;;9.84;76.64;100420.44;5053212;28;20047;-67
2022/04/13 02:39:05;;;;;;;;;;;;;;;9.69;77.38;100419.44;5053642;28;20056;-67
2022/04/13 02:42:07;;;;;;;3.37;2.20;;;;;;;9.67;77.69;100414.28;5053074;28;19920;-67
2022/04/13 02:45:11;;;;;;;9.73;2.20;;;;;;;9.96;76.24;100425.03;5052541;28;20114;-68
2022/04/13 02:48:14;;;;;;;4.40;1.80;;;;;;;10.05;76.18;100423.69;5052603;28;20091;-67
2022/04/13 02:51:17;;;;;;;4.85;1.85;;;;;;;9.99;75.37;100423.09;5052869;28;20503;-67
2022/04/13 02:54:21;;;;;;;8.88;2.60;;;;;;;9.61;76.42;100427.66;5052642;28;20424;-67
2022/04/13 02:57:25;;;;;;;6.45;1.90;;;;;;;9.53;76.86;100428.00;5052440;28;20043;-67
2022/04/13 03:00:29;;;;;;;5.63;2.15;;;;;;;9.60;77.42;100427.72;5052308;28;20049;-67
2022/04/13 03:03:33;;;;;;;6.70;2.05;;;;;;;9.70;76.48;100436.78;5052334;28;20082;-67
2022/04/13 03:06:36;;;;;;;9.00;2.75;;;;;;;9.43;76.66;100432.00;5052438;28;20102;-67
2022/04/13 03:09:40;;;;;;;4.25;2.05;;;;;;;9.47;76.85;100433.53;5052241;28;20102;-67
2022/04/13 03:12:44;;;;;;;3.95;1.95;;;;;;;9.32;76.63;100435.16;5052206;28;20403;-67
2022/04/13 03:15:47;;;;;;;4.22;1.80;;;;;;;9.33;76.81;100433.38;5052058;28;20179;-67
2022/04/13 03:18:50;;;;;;;;;;;;;;;9.32;76.76;100447.34;5052644;28;20091;-67
2022/04/13 03:21:54;;;;;;;4.95;1.77;;;;;;;9.26;77.34;100447.66;5052199;28;20275;-67
2022/04/13 03:25:02;;;;;;;5.43;1.88;;;;;;;9.13;77.68;100439.56;5052038;28;20114;-67
2022/04/13 03:28:05;;;;;;;10.68;2.28;;;;;;;9.04;77.50;100446.06;5051920;28;20133;-67
2022/04/13 03:31:09;;;;;;;3.88;1.92;;;;;;;8.94;78.30;100439.59;5051915;28;20531;-67
2022/04/13 03:34:12;;;;;;;6.22;2.10;;;;;;;8.84;78.64;100441.78;5052084;28;20099;-67
2022/04/13 03:37:15;;;;;;;4.43;2.20;;;;;;;9.10;78.32;100441.47;5052081;28;20043;-67
2022/04/13 03:40:19;;;;;;;13.48;2.00;;;;;;;9.07;77.70;100439.84;5052003;28;20120;-67
2022/04/13 03:43:22;;;;;;;;;;;;;;;9.02;78.01;100442.66;5052465;28;20439;-67
2022/04/13 03:46:25;;;;;;;8.38;2.17;;;;;;;8.86;78.49;100444.28;5051980;28;19947;-67
2022/04/13 03:49:29;;;;;;;7.63;1.98;;;;;;;8.77;78.47;100444.72;5052051;28;20048;-67
2022/04/13 03:52:33;;;;;;;;;;;;;;;8.99;77.31;100445.41;5052546;28;20040;-67
2022/04/13 03:55:36;;;;;;;;;;;;;;;8.98;77.27;100450.72;5052398;28;19935;-67
2022/04/13 03:58:40;;;;;;;5.30;2.00;;;;;;;8.89;77.63;100451.97;5051781;28;19920;-67
2022/04/13 04:01:44;;;;;;;4.03;2.10;;;;;;;8.73;78.37;100453.59;5051892;28;20048;-67
2022/04/13 04:04:47;;;;;;;6.35;2.08;;;;;;;8.65;78.96;100461.78;5051950;28;20091;-67
2022/04/13 04:07:51;;;;;;;;;;;;;;;8.64;78.83;100459.22;5052305;28;20423;-68
2022/04/13 04:10:55;;;;;;;7.10;2.00;;;;;;;8.54;79.23;100461.41;5051713;28;20015;-67
2022/04/13 04:13:58;;;;;;;3.97;1.95;;;;;;;8.54;79.27;100467.47;5051765;28;20048;-67
2022/04/13 04:17:02;;;;;;;3.85;2.03;;;;;;;8.45;79.46;100469.63;5051554;28;20086;-67
2022/04/13 04:20:06;;;;;;;;;;;;;;;8.48;78.91;100478.16;5052505;28;20124;-67
2022/04/13 04:23:09;;;;;;;4.80;2.03;;;;;;;8.37;79.57;100475.16;5051653;28;19926;-67
2022/04/13 04:26:13;;;;;;;7.20;2.03;;;;;;;8.27;79.14;100469.50;5051583;28;20044;-67
2022/04/13 04:29:16;;;;;;;5.57;2.53;;;;;;;8.43;78.72;100469.72;5051448;28;20048;-67
2022/04/13 04:32:19;;;;;;;;;;;;;;;8.26;79.28;100475.59;5026297;28;20562;-67
2022/04/13 04:35:23;;;;;;;4.55;1.75;;;;;;;8.19;79.51;100483.78;5026564;28;19924;-67
2022/04/13 04:38:32;;;;;;;4.38;2.22;;;;;;;8.42;78.29;100481.03;5027069;28;20055;-67
2022/04/13 04:41:35;;;;;;;8.95;2.25;;;;;;;8.22;79.14;100478.44;5027248;28;20388;-67
2022/04/13 04:44:39;;;;;;;3.10;1.75;;;;;;;8.08;79.71;100484.25;5025813;28;20413;-67
2022/04/13 04:47:42;;;;;;;;;;;;;;;8.35;78.88;100482.19;5027170;28;20550;-67
2022/04/13 04:50:45;;;;;;;5.80;2.10;;;;;;;8.37;78.17;100488.19;5030147;28;20280;-67
2022/04/13 04:53:49;;;;;;;6.00;2.20;;;;;;;8.16;78.53;100493.38;5029336;28;20103;-67
2022/04/13 04:56:52;;;;;;;3.90;2.10;;;;;;;8.08;78.42;100492.06;5030267;28;20040;-67
2022/04/13 04:59:56;;;;;;;5.93;2.40;;;;;;;8.02;79.32;100495.75;5030739;28;20068;-67
2022/04/13 05:02:59;;;;;;;5.90;2.00;;;;;;;7.98;79.54;100498.56;5030087;28;20107;-67
2022/04/13 05:06:02;;;;;;;3.53;1.95;;;;;;;7.98;79.35;100490.75;5029688;28;20403;-67
2022/04/13 05:09:06;;;;;;;5.00;2.13;;;;;;;8.01;79.51;100501.00;5032932;28;20123;-67
2022/04/13 05:12:10;;;;;;;4.03;1.83;;;;;;;8.16;78.68;100496.00;5034158;28;20052;-67
2022/04/13 05:15:13;;;;;;;5.72;2.63;;;;;;;8.13;79.16;100501.34;5035031;28;20056;-67
2022/04/13 05:18:16;;;;;;;6.53;3.03;;;;;;;8.10;79.28;100506.69;5030947;28;20039;-67
2022/04/13 05:21:20;;;;;;;3.78;1.95;;;;;;;8.01;79.86;100514.91;5025380;28;20052;-67
2022/04/13 05:24:23;;;;;;;;;;;;;;;7.94;80.00;100518.66;5027022;28;20092;-67
2022/04/13 05:27:27;;;;;;;7.57;2.33;;;;;;;7.93;79.96;100514.34;5008959;28;19919;-67
2022/04/13 05:30:30;;;;;;;;;;;;;;;8.03;79.85;100523.47;5009912;28;20068;-67
2022/04/13 05:33:34;;;;;;;3.35;2.08;;;;;;;8.32;78.58;100521.41;5024727;28;20034;-67
2022/04/13 05:36:37;;;;;;;4.10;2.03;;;;;;;8.38;78.55;100518.56;5029076;28;20092;-68
2022/04/13 05:39:41;;;;;;;4.22;1.70;;;;;;;8.23;78.98;100524.38;5029563;28;20614;-67
2022/04/13 05:42:46;;;;;;;3.53;1.90;;;;;;;8.31;78.96;100530.13;5029210;28;20045;-67
2022/04/13 05:45:50;;;;;;;3.70;1.80;;;;;;;8.20;79.24;100534.94;5027381;28;20055;-67
2022/04/13 05:48:54;;;;;;;11.13;2.25;;;;;;;8.13;80.26;100535.19;5028917;28;20128;-67
2022/04/13 05:51:57;;;;;;;;;;;;;;;8.27;79.67;100536.41;5031653;28;20111;-67
2022/04/13 05:55:01;;;;;;;5.70;2.30;;;;;;;8.54;78.91;100537.81;5032136;28;19920;-67
2022/04/13 05:58:05;;;;;;;6.28;2.22;;;;;;;8.41;79.73;100541.88;5034702;28;20183;-67
2022/04/13 06:01:09;;;;;;;4.20;2.33;;;;;;;8.48;79.50;100535.47;5032735;28;20115;-67
2022/04/13 06:04:12;;;;;;;5.13;2.10;;;;;;;8.50;79.87;100538.88;5033824;28;20095;-67
2022/04/13 06:07:16;;;;;;;6.10;2.25;;;;;;;8.69;79.01;100538.09;5034053;28;20209;-67
2022/04/13 06:10:19;;;;;;;4.20;2.03;;;;;;;8.90;77.39;100537.09;5032599;28;20527;-67
2022/04/13 06:13:23;;;;;;;5.10;1.85;;;;;;;9.00;77.14;100543.63;5007347;28;20127;-67
2022/04/13 06:16:27;;;;;;;8.02;2.80;;;;;;;9.14;77.04;100552.56;5008370;28;20056;-67
2022/04/13 06:19:31;;;;;;;8.85;2.78;;;;;;;9.05;77.67;100549.44;5017819;28;20107;-67
2022/04/13 06:22:39;;;;;;;4.68;2.55;;;;;;;8.87;78.71;100560.75;5032263;28;20103;-67
2022/04/13 06:25:42;;;;;;;5.35;2.70;;;;;;;8.83;79.21;100569.59;5033477;28;20083;-67
2022/04/13 06:28:46;;;;;;;7.72;3.22;;;;;;;8.89;79.06;100571.94;5033399;28;20048;-67
2022/04/13 06:31:49;;;;;;;5.38;3.55;;;;;;;8.99;79.37;100578.41;5032593;28;20044;-67
2022/04/13 06:34:52;;;;;;;;;;;;;;;9.21;78.29;100570.47;5033931;28;20044;-67
2022/04/13 06:37:55;;;;;;;5.07;2.92;;;;;;;9.48;77.23;100572.75;5033077;28;19967;-67
2022/04/13 06:40:58;;;;;;;;;;;;;;;9.57;76.90;100572.28;5033825;28;20558;-67
2022/04/13 06:44:02;;;;;;;3.97;2.25;;;;;;;9.65;76.73;100571.94;5033107;28;19920;-67
2022/04/13 06:47:05;;;;;;;;;;;;;;;9.63;76.91;100577.22;5033554;28;20082;-67
2022/04/13 06:50:10;;;;;;;6.38;2.83;;;;;;;9.68;76.25;100577.84;5033214;28;20334;-67
2022/04/13 06:53:14;;;;;;;6.53;2.78;;;;;;;9.85;75.86;100579.66;5031854;28;20091;-67
2022/04/13 06:56:18;;;;;;;7.88;2.90;;;;;;;9.87;76.19;100583.03;5040359;28;20044;-67
2022/04/13 06:59:22;;;;;;;7.68;2.95;;;;;;;10.02;75.83;100590.13;5032144;28;20067;-67
2022/04/13 07:02:26;;;;;;;10.13;3.47;;;;;;;10.12;75.46;100589.69;5032029;28;20049;-67
2022/04/13 07:05:30;;;;;;;4.95;3.00;;;;;;;10.11;75.67;100586.19;5032607;28;20055;-67
2022/04/13 07:08:33;;;;;;;6.93;3.45;;;;;;;10.36;74.90;100588.47;5031581;28;20048;-67
2022/04/13 07:11:37;;;;;;;7.95;3.17;;;;;;;10.54;74.28;100588.47;5031642;28;20052;-67
2022/04/13 07:14:41;;;;;;;5.15;3.38;;;;;;;10.65;74.36;100597.44;5032108;28;20043;-67
2022/04/13 07:17:46;;;;;;;9.93;2.67;;;;;;;10.75;74.24;100597.81;5031226;28;20111;-67
2022/04/13 07:20:49;;;;;;;5.90;2.92;;;;;;;10.92;73.75;100602.19;5032143;28;20052;-67
2022/04/13 07:23:52;;;;;;;6.40;2.80;;;;;;;10.98;73.82;100593.19;5031509;28;20090;-67
2022/04/13 07:26:56;;;;;;;6.53;3.00;;;;;;;11.22;72.69;100612.78;5031837;28;20087;-67
2022/04/13 07:29:59;;;;;;;9.85;2.63;;;;;;;11.39;71.91;100604.88;5031991;28;20126;-67
2022/04/13 07:33:03;;;;;;;7.28;2.92;;;;;;;11.39;72.26;100604.88;5031543;28;20045;-67
2022/04/13 07:36:06;;;;;;;;;;;;;;;11.63;71.67;100605.31;5027025;28;20511;-67
2022/04/13 07:39:09;;;;;;;4.68;2.20;;;;;;;11.80;70.74;100598.28;5026280;28;19920;-67
2022/04/13 07:42:21;;;;;;;8.60;3.08;;;;;;;11.92;70.29;100608.09;5026355;28;20036;-67
2022/04/13 07:45:25;;;;;;;4.03;2.10;;;;;;;11.93;69.60;100598.47;5026895;28;20531;-67
2022/04/13 07:48:30;;;;;;;8.60;2.95;;;;;;;11.92;69.93;100594.16;5025756;28;20114;-67
2022/04/13 07:51:35;;;;;;;5.57;2.15;;;;;;;12.04;69.74;100591.69;5027072;28;20107;-67
2022/04/13 07:54:39;;;;;;;6.43;2.30;;;;;;;12.16;69.32;100591.94;5032333;28;20060;-67
2022/04/13 07:57:43;;;;;;;4.97;2.63;;;;;;;12.32;68.66;100598.81;5033890;28;20064;-67
2022/04/13 08:00:48;;;;;;;8.20;2.55;;;;;;;12.47;68.34;100593.59;5031738;28;20126;-67
2022/04/13 08:03:52;;;;;;;6.95;2.30;;;;;;;12.41;68.74;100597.44;5031407;28;20091;-67
2022/04/13 08:06:56;;;;;;;8.27;4.82;;;;;;;12.57;67.96;100592.09;5031204;28;20137;-67
2022/04/13 08:10:00;;;;;;;7.85;3.50;;;;;;;12.75;67.42;100588.38;5031275;28;20055;-68
2022/04/13 08:13:04;;;;;;;4.75;2.20;;;;;;;12.93;67.46;100596.09;5032127;28;20044;-67
2022/04/13 08:16:09;;;;;;;5.82;3.03;;;;;;;13.20;64.96;100590.91;5017938;28;20048;-67
2022/04/13 08:19:12;;;;;;;5.60;2.40;;;;;;;13.39;63.64;100582.75;5019398;28;20056;-68
2022/04/13 08:22:17;;;;;;;5.78;2.30;;;;;;;13.61;62.07;100582.25;5019701;28;20040;-67
2022/04/13 08:25:21;;;;;;;7.20;2.40;;;;;;;13.77;60.64;100584.72;5035290;28;20507;-67
2022/04/13 08:28:24;;;;;;;5.28;1.98;;;;;;;13.90;60.32;100582.97;5035423;28;20045;-68
2022/04/13 08:31:28;;;;;;;5.70;1.85;;;;;;;13.92;59.85;100583.75;5034874;28;20126;-67
2022/04/13 08:34:31;;;;;;;5.60;1.65;;;;;;;14.00;60.66;100594.56;5035258;28;20120;-67
2022/04/13 08:37:35;;;;;;;5.32;2.20;;;;;;;14.11;59.85;100596.53;5035014;28;20408;-67
2022/04/13 08:40:47;;;;;;;5.03;1.70;;;;;;;14.14;59.43;100602.41;5035476;28;20408;-67
2022/04/13 08:43:56;;;;;;;7.13;2.20;;;;;;;14.16;59.06;100600.50;5034822;28;20466;-67
2022/04/13 08:47:06;;;;;;;3.95;2.10;;;;;;;14.17;58.57;100602.22;5034834;28;20044;-67
2022/04/13 08:50:11;;;;;;;5.28;1.95;;;;;;;14.19;57.60;100610.84;5034796;28;20523;-67
2022/04/13 08:53:19;;;;;;;3.60;1.83;;;;;;;14.29;57.85;100610.22;5034606;28;20479;-67
2022/04/13 08:56:23;;;;;;;8.80;2.05;;;;;;;14.39;56.90;100600.81;5037697;28;20110;-67
2022/04/13 08:59:51;;;;;;;8.32;2.45;;;;;;;14.49;56.30;100596.59;5053747;28;20059;-67
2022/04/13 09:03:16;;;;;;;9.95;2.72;;;;;;;14.59;56.04;100600.31;5054517;28;20051;-68
2022/04/13 09:06:20;;;;;;;6.25;2.95;;;;;;;14.78;56.37;100601.72;5054838;28;20428;-67
2022/04/13 09:09:37;;;;;;;7.70;1.60;;;;;;;14.93;55.28;100605.88;5054184;28;20075;-68
2022/04/13 09:12:42;;;;;;;3.50;1.73;;;;;;;15.16;54.86;100601.69;5054579;28;20101;-67
2022/04/13 09:15:47;;;;;;;3.58;1.63;;;;;;;15.09;54.44;100601.28;5042047;28;20106;-68
2022/04/13 09:18:50;;;;;;;5.20;1.88;;;;;;;15.17;54.70;100597.25;5042291;28;20099;-67
2022/04/13 09:21:55;;;;;;;6.88;1.73;;;;;;;15.17;54.47;100600.72;5054091;28;20484;-67
2022/04/13 09:25:00;;;;;;;4.53;1.65;;;;;;;15.42;53.18;100599.81;5054436;28;20499;-67
2022/04/13 09:28:04;;;;;;;3.33;1.50;;;;;;;15.58;53.17;100607.47;5054218;28;20039;-67
2022/04/13 09:31:08;;;;;;;7.25;2.00;;;;;;;15.75;52.57;100608.91;5053062;28;20056;-67
2022/04/13 09:34:12;;;;;;;4.53;1.77;;;;;;;15.94;52.52;100598.72;5053724;28;20044;-67
2022/04/13 09:37:16;;;;;;;5.22;1.50;;;;;;;16.32;51.20;100605.59;5042772;28;20400;-67
2022/04/13 09:40:39;;;;;;;7.63;1.95;;;;;;;16.32;52.11;100583.63;5029113;28;20059;-68
2022/04/13 09:43:52;;;;;;;;;;;;;;;16.54;51.26;100591.59;5029408;28;20496;-68
2022/04/13 09:47:11;;;;;;;6.97;1.77;;;;;;;16.71;51.69;100593.78;5027748;28;19920;-68
2022/04/13 09:50:24;;;;;;;3.90;1.70;;;;;;;16.80;50.67;100594.06;5029005;28;20436;-68
2022/04/13 09:53:28;;;;;;;9.93;1.80;;;;;;;16.98;49.79;100595.31;5028450;28;20137;-68
2022/04/13 09:56:32;;;;;;;5.15;1.77;;;;;;;17.02;51.07;100594.09;5028718;28;20459;-68
2022/04/13 09:59:36;;;;;;;6.18;2.00;;;;;;;17.08;49.57;100601.53;5019961;28;20445;-68
2022/04/13 10:02:42;;;;;;;5.18;1.50;;;;;;;17.34;49.55;100594.19;5016249;28;20041;-68
2022/04/13 10:05:50;;;;;;;5.25;1.50;;;;;;;17.47;47.12;100590.56;5028845;28;20140;-68
2022/04/13 10:09:04;;;;;;;5.78;2.10;;;;;;;17.71;46.54;100593.91;5029383;28;20443;-68
2022/04/13 10:12:09;;;;;;;5.88;1.65;;;;;;;17.68;45.06;100594.16;5027530;28;20064;-68
2022/04/13 10:15:13;;;;;;;2.80;1.25;;;;;;;17.77;46.42;100597.84;5029187;28;20040;-68
2022/04/13 10:18:16;;;;;;;5.35;1.85;;;;;;;17.81;45.60;100592.22;5028920;28;20053;-68
2022/04/13 10:21:35;;;;;;;6.50;1.48;;;;;;;17.84;45.03;100588.47;5029436;28;20055;-68
2022/04/13 10:24:40;;;;;;;6.03;1.75;;;;;;;17.91;45.08;100599.41;5028369;28;20160;-68
2022/04/13 10:27:58;;;;;;;4.80;1.45;;;;;;;18.14;44.45;100595.69;5023762;28;20095;-68
2022/04/13 10:31:08;;;;;;;5.65;1.52;;;;;;;18.35;44.36;100587.78;5005306;28;20110;-67
2022/04/13 10:34:12;;;;;;;4.47;1.65;;;;;;;18.51;42.49;100584.69;5028213;28;20129;-68
2022/04/13 10:37:19;;;;;;;3.67;1.42;;;;;;;18.43;42.36;100579.19;5028742;28;20206;-68
2022/04/13 10:40:24;;;;;;;7.15;2.10;;;;;;;18.50;43.79;100569.75;5008571;28;20104;-68
2022/04/13 10:43:28;;;;;;;8.68;1.95;;;;;;;18.36;43.02;100570.91;5009454;28;20446;-68
2022/04/13 10:46:32;;;;;;;6.72;2.00;;;;;;;18.44;43.71;100571.13;5008569;28;20048;-68
2022/04/13 10:50:02;;;;;;;5.05;1.60;;;;;;;18.38;43.23;100578.72;5008428;28;20612;-68
2022/04/13 10:53:12;;;;;;;5.25;1.40;;;;;;;18.39;42.93;100578.59;5027720;28;20052;-68
2022/04/13 10:56:20;;;;;;;6.30;1.42;;;;;;;18.52;42.69;100584.53;5027568;28;20119;-68
2022/04/13 10:59:32;;;;;;;5.38;1.85;;;;;;;18.53;42.26;100582.72;5025823;28;20586;-68
2022/04/13 11:02:57;;;;;;;5.82;1.75;;;;;;;18.54;41.81;100584.41;5027831;28;20455;-68
2022/04/13 11:06:08;;;;;;;5.25;2.15;;;;;;;18.50;40.71;100580.31;5027966;28;20048;-69
2022/04/13 11:09:26;;;;;;;4.97;1.58;;;;;;;18.56;40.32;100572.69;5027976;28;20504;-68
2022/04/13 11:12:31;;;;;;;6.05;1.65;;;;;;;18.54;40.35;100576.47;5026942;28;20572;-68
2022/04/13 11:15:43;;;;;;;5.82;1.90;;;;;;;18.55;40.32;100580.78;5027726;28;20203;-68
2022/04/13 11:19:03;;;;;;;4.30;1.67;;;;;;;18.67;39.68;100579.75;5027012;28;20471;-68
2022/04/13 11:22:06;;;;;;;10.88;1.65;;;;;;;18.74;38.81;100578.28;5027383;28;20106;-68
2022/04/13 11:25:09;;;;;;;5.75;1.55;;;;;;;18.68;39.92;100578.78;5028666;28;20209;-68
2022/04/13 11:28:26;;;;;;;5.88;1.40;;;;;;;18.74;40.36;100565.03;5030338;28;20076;-68
2022/04/13 11:31:29;;;;;;;6.72;1.30;;;;;;;18.83;40.10;100559.94;5031056;28;20202;-68
2022/04/13 11:34:38;;;;;;;6.18;1.33;;;;;;;18.83;39.50;100562.56;5032125;28;20052;-68
2022/04/13 11:37:43;;;;;;;4.82;1.48;;;;;;;19.15;40.45;100565.06;5032325;28;20044;-68
2022/04/13 11:41:04;;;;;;;4.20;1.65;;;;;;;19.56;38.98;100565.84;5032217;28;20047;-68
2022/04/13 11:44:18;;;;;;;3.50;1.20;;;;;;;19.45;39.51;100562.34;5032264;28;20044;-68
2022/04/13 11:47:22;;;;;;;;;;;;;;;19.39;39.05;100567.34;5032774;28;20171;-68
2022/04/13 11:50:29;;;;;;;5.10;1.35;;;;;;;19.41;38.89;100560.94;5032262;28;19966;-68
2022/04/13 11:53:32;;;;;;;6.88;1.30;;;;;;;19.48;38.65;100567.38;5031959;28;20070;-68
2022/04/13 11:56:37;;;;;;;5.97;1.40;;;;;;;19.50;39.05;100569.91;5032476;28;20045;-68
2022/04/13 11:59:46;;;;;;;8.20;1.77;;;;;;;19.93;39.18;100558.09;5022502;28;20090;-68
2022/04/13 12:02:50;;;;;;;5.15;1.20;;;;;;;19.85;38.38;100564.13;5036599;28;20534;-68
2022/04/13 12:06:04;;;;;;;7.40;1.70;;;;;;;19.96;37.71;100558.66;5036214;28;20048;-68
2022/04/13 12:09:09;;;;;;;4.18;1.20;;;;;;;20.25;38.24;100563.09;5035864;28;20111;-68
2022/04/13 12:12:16;;;;;;;6.13;1.30;;;;;;;20.25;36.46;100565.75;5035582;28;20041;-68
2022/04/13 12:15:20;;;;;;;4.25;1.40;;;;;;;20.36;36.39;100559.47;5035783;28;20076;-68
2022/04/13 12:18:25;;;;;;;5.10;1.70;;;;;;;20.39;36.48;100556.53;5036009;28;20076;-68
2022/04/13 12:21:31;;;;;;;6.80;1.52;;;;;;;20.60;36.51;100549.22;5036083;28;20056;-68
2022/04/13 12:24:35;;;;;;;7.15;1.48;;;;;;;20.85;36.41;100552.22;5035714;28;20075;-68
2022/04/13 12:27:38;;;;;;;9.40;1.63;;;;;;;21.14;34.67;100547.59;5035562;28;20403;-68
2022/04/13 12:30:42;;;;;;;5.75;1.40;;;;;;;21.73;32.84;100536.59;5023720;28;20048;-68
2022/04/13 12:33:45;;;;;;;7.15;1.63;;;;;;;21.86;32.38;100539.75;5035591;28;20095;-68
2022/04/13 12:36:54;;;;;;;8.77;1.88;;;;;;;22.13;31.36;100527.31;5035564;28;20048;-68
2022/04/13 12:40:00;;;;;;;12.30;1.40;;;;;;;22.16;30.54;100527.03;5035290;28;20128;-68
2022/04/13 12:43:09;;;;;;;7.38;1.48;;;;;;;22.64;30.30;100515.00;5035210;28;20040;-68
2022/04/13 12:46:15;;;;;;;7.28;1.50;;;;;;;22.82;28.69;100513.09;5046148;28;20510;-68
2022/04/13 12:49:20;;;;;;;7.03;1.55;;;;;;;23.21;28.41;100515.28;5035132;28;20104;-68
2022/04/13 12:52:27;;;;;;;7.03;3.90;;;;;;;23.29;28.31;100507.28;5034994;28;20049;-68
2022/04/13 12:55:33;;;;;;;11.00;4.43;;;;;;;23.43;28.12;100506.66;5034889;28;20124;-68
2022/04/13 12:58:38;;;;;;;11.05;4.50;;;;;;;23.58;27.90;100503.31;5034931;28;20048;-68
2022/04/13 13:01:46;;;;;;;9.85;1.38;;;;;;;23.84;27.87;100504.06;5035005;28;20052;-68
2022/04/13 13:04:51;;;;;;;7.10;1.45;;;;;;;24.04;28.05;100506.38;5034941;28;20451;-68
2022/04/13 13:07:55;;;;;;;8.88;2.72;;;;;;;24.21;26.80;100508.03;5035316;28;20080;-68
2022/04/13 13:10:58;;;;;;;9.45;2.58;;;;;;;24.32;25.84;100499.66;5034012;28;20056;-68
2022/04/13 13:14:15;;;;;;;7.82;1.38;;;;;;;24.88;26.72;100494.34;5034953;28;20052;-68
2022/04/13 13:17:19;;;;;;;6.68;1.70;;;;;;;25.04;26.03;100496.09;5035011;28;20142;-68
2022/04/13 13:20:23;;;;;;;5.63;1.40;;;;;;;25.11;25.58;100491.72;5034835;28;20087;-68
2022/04/13 13:23:28;;;;;;;4.82;1.30;;;;;;;25.19;25.40;100490.88;5034356;28;20119;-68
2022/04/13 13:26:31;;;;;;;4.55;0.85;;;;;;;25.15;25.19;100485.03;5034392;28;20044;-68
2022/04/13 13:29:45;;;;;;;19.63;1.90;;;;;;;25.41;28.43;100476.69;5034817;28;20044;-69
2022/04/13 13:32:51;;;;;;;7.18;1.63;;;;;;;26.19;26.76;100474.69;5034495;28;20044;-69
2022/04/13 13:35:54;;;;;;;5.90;1.45;;;;;;;26.31;24.13;100480.44;5034362;28;20063;-70
2022/04/13 13:38:57;;;;;;;10.73;1.50;;;;;;;26.92;23.73;100475.72;5034112;28;20040;-69
2022/04/13 13:42:07;;;;;;;6.70;1.55;;;;;;;27.81;23.19;100476.28;5034337;28;20416;-70
2022/04/13 13:45:16;;;;;;;10.57;2.05;;;;;;;28.03;22.95;100477.06;5034085;28;20095;-70
2022/04/13 13:48:23;;;;;;;4.55;1.27;;;;;;;28.17;22.85;100485.22;5034820;28;20128;-70
2022/04/13 13:51:28;;;;;;;7.20;2.30;;;;;;;28.06;23.16;100473.16;5034057;28;20045;-70
2022/04/13 13:54:35;;;;;;;6.60;1.70;;;;;;;27.99;24.28;100475.81;5034179;28;20056;-70
2022/04/13 13:57:40;;;;;;;7.30;1.60;;;;;;;28.55;22.95;100480.31;5021496;28;20039;-70
2022/04/13 14:00:43;;;;;;;5.95;1.85;;;;;;;29.22;22.61;100484.13;5033765;28;20399;-70
2022/04/13 14:03:47;;;;;;;5.78;1.55;;;;;;;29.75;21.88;100473.47;5033631;28;20060;-70
2022/04/13 14:06:50;;;;;;;8.45;1.55;;;;;;;29.58;21.92;100472.16;5033964;28;20099;-72
2022/04/13 14:09:54;;;;;;;6.80;1.63;;;;;;;30.39;21.65;100476.53;5033214;28;20044;-72
2022/04/13 14:12:57;;;;;;;6.75;1.40;;;;;;;29.06;21.35;100482.63;5033008;28;20075;-70
2022/04/13 14:16:02;;;;;;;8.80;1.95;;;;;;;28.98;22.31;100489.00;5033640;28;20601;-70
2022/04/13 14:19:06;;;;;;;7.30;1.88;;;;;;;28.89;21.76;100478.63;5032673;28;20048;-70
2022/04/13 14:22:09;;;;;;;4.30;1.40;;;;;;;27.27;24.57;100478.63;5032366;28;20044;-70
2022/04/13 14:25:14;;;;;;;10.70;2.40;;;;;;;27.39;23.82;100481.66;5033409;28;20095;-69
2022/04/13 14:28:17;;;;;;;5.50;1.42;;;;;;;26.93;24.84;100481.91;5033359;28;20068;-70
2022/04/13 14:31:20;;;;;;;7.32;1.70;;;;;;;26.46;24.91;100475.09;5033630;28;20056;-70
2022/04/13 14:34:24;;;;;;;10.75;1.50;;;;;;;26.00;25.56;100484.09;5033240;28;20049;-70